Aviation Digital Data Service (ADDS)

Output produced by METARs form (0601 UTC 07 December 2022)
found at http://www.aviationweather.gov/metar/data/
 
EFJY 070550Z AUTO VRB02KT 3700 -SN OVC011 M02/M03 Q1006
EFJY 070520Z AUTO 18003KT 9999 -FZRA OVC008 M02/M03 Q1006
TAF AMD EFJY 070552Z 0706/0806 20004KT 9999 BKN008 
     TEMPO 0706/0708 3000 -FZDZSN OVC010 
     BECMG 0711/0713 3000 -SN 
     TEMPO 0713/0806 2000
       
EFHA 070550Z AUTO 24003KT 180V280 9999 OVC005 M02/M03 Q1006
EFHA 070520Z AUTO 25004KT 220V290 9999 OVC005 M02/M03 Q1006
TAF EFHA 070522Z 0706/0715 22003KT 9999 OVC005 
     PROB40 0706/0709 4000 BR BKN004 
     TEMPO 0713/0715 6000 -SN
       
EFTP 070550Z AUTO VRB01KT 4200 1300 R24/P2000U BR OVC001 M04/M04 Q1006
EFTP 070520Z AUTO 05003KT 9999 OVC002 M03/M04 Q1006
TAF EFTP 070522Z 0706/0806 28003KT 8000 BKN005 
     TEMPO 0706/0708 2500 BR BKN001 
     TEMPO 0711/0715 BKN015 
     BECMG 0715/0717 3000 -SN BKN010 
     TEMPO 0717/0806 2000 BKN008
       
EFMI 070550Z AUTO 14004KT 9999 OVC005 M02/M03 Q1007
EFMI 070520Z AUTO 15004KT 9999 OVC005 M02/M03 Q1007
EFKU 070550Z AUTO 17010KT 7000 -FZDZ OVC006 M02/M03 Q1006
EFKU 070520Z AUTO 18009KT 9999 -FZDZSN OVC006 M02/M03 Q1006
TAF EFKU 070524Z 0706/0806 18010KT 9999 OVC006 
     TEMPO 0706/0709 6000 -FZDZSN 
     TEMPO 0709/0712 3000 -SN 
     BECMG 0712/0714 12006KT 4000 -SN 
     TEMPO 0714/0806 2500
       
EFKI 070550Z AUTO 18005KT 9999 BKN030 BKN040 M03/M04 Q1005
EFKI 070520Z AUTO 18006KT 9999 FEW007 BKN029 BKN041 M03/M04 Q1005
TAF EFKI 070533Z 0706/0715 19006KT 9999 BKN008 
     TEMPO 0706/0708 2000 -SN SCT007 OVC030 
     TEMPO 0708/0715 7000 -SN
       
EFLP 070550Z AUTO 13006KT 100V160 8000 -SN OVC004 M03/M04 Q1008
EFLP 070520Z AUTO 13006KT 090V160 5000 -SN OVC006 M03/M04 Q1008
EFSI 070550Z AUTO VRB02KT CAVOK M10/M11 Q1005
EFSI 070520Z AUTO 14006KT 9999 VCSH //////CB M12/M13 Q1005
TAF EFSI 070533Z 0706/0715 16005KT 9999 SCT020
       
EFTU 070550Z AUTO VRB01KT CAVOK M06/M06 Q1006
EFTU 070520Z AUTO VRB02KT CAVOK M05/M06 Q1006
TAF EFTU 070525Z 0706/0806 VRB02KT CAVOK 
     BECMG 0715/0717 3000 -SN BKN012 
     BECMG 0717/0719 03010KT 
     TEMPO 0720/0806 2000 BKN008